createdAt,value
2019-03-26T00:01:03.525Z,0.60
2019-03-26T00:03:36.405Z,0.50
2019-03-26T00:06:09.488Z,0.55
2019-03-26T00:08:42.367Z,0.50
2019-03-26T00:11:15.367Z,0.40
2019-03-26T00:13:48.765Z,0.50
2019-03-26T00:16:21.624Z,0.60
2019-03-26T00:18:54.584Z,0.60
2019-03-26T00:21:27.604Z,0.50
2019-03-26T00:24:00.492Z,0.50
2019-03-26T00:26:33.364Z,0.60
2019-03-26T00:29:06.225Z,0.60
2019-03-26T00:31:39.786Z,0.60
2019-03-26T00:34:19.303Z,0.50
2019-03-26T00:36:47.074Z,0.50
2019-03-26T00:39:20.314Z,0.50
2019-03-26T00:41:53.284Z,0.50
2019-03-26T00:44:26.225Z,0.33
2019-03-26T00:46:59.012Z,0.65
2019-03-26T00:49:31.940Z,0.60
2019-03-26T00:52:04.787Z,0.60
2019-03-26T00:54:37.586Z,0.50
2019-03-26T00:57:10.625Z,0.60
2019-03-26T00:59:43.964Z,0.60
2019-03-26T01:02:16.725Z,0.60
2019-03-26T01:04:49.773Z,0.70
2019-03-26T01:07:22.989Z,0.70
2019-03-26T01:09:56.132Z,1.00
2019-03-26T01:12:31.215Z,0.90
2019-03-26T01:15:03.425Z,0.85
2019-03-26T01:17:36.272Z,0.65
2019-03-26T01:20:11.188Z,0.80
2019-03-26T01:22:44.325Z,0.72
2019-03-26T01:25:17.249Z,0.60
2019-03-26T01:27:50.364Z,0.70
2019-03-26T01:30:24.724Z,0.70
2019-03-26T01:32:57.845Z,0.60
2019-03-26T01:35:30.644Z,0.62
2019-03-26T01:38:03.625Z,0.60
2019-03-26T01:40:36.404Z,0.70
2019-03-26T01:43:09.204Z,0.60
2019-03-26T01:45:42.012Z,0.70
2019-03-26T01:48:15.005Z,0.80
2019-03-26T01:50:47.989Z,0.70
2019-03-26T01:53:21.293Z,0.82
2019-03-26T01:55:54.088Z,0.80
2019-03-26T01:58:27.165Z,0.82
2019-03-26T02:01:00.725Z,0.62
2019-03-26T02:03:33.852Z,0.90
2019-03-26T02:06:06.684Z,0.60
2019-03-26T02:08:39.564Z,0.62
2019-03-26T02:11:12.492Z,0.70
2019-03-26T02:13:45.463Z,0.70
2019-03-26T02:16:18.385Z,0.53
2019-03-26T02:18:51.567Z,0.65
2019-03-26T02:21:25.325Z,0.47
2019-03-26T02:23:58.224Z,0.68
2019-03-26T02:26:31.484Z,0.50
2019-03-26T02:29:04.427Z,0.60
2019-03-26T02:31:37.425Z,0.50
2019-03-26T02:34:10.246Z,0.55
2019-03-26T02:36:44.133Z,0.50
2019-03-26T02:39:16.964Z,0.57
2019-03-26T02:41:49.814Z,0.60
2019-03-26T02:44:23.006Z,0.50
2019-03-26T02:46:56.677Z,0.47
2019-03-26T02:49:29.527Z,0.55
2019-03-26T02:52:02.485Z,0.57
2019-03-26T02:54:36.490Z,0.50
2019-03-26T02:57:09.825Z,0.60
2019-03-26T02:59:42.810Z,0.57
2019-03-26T03:02:15.812Z,0.60
2019-03-26T03:04:48.625Z,0.50
2019-03-26T03:07:21.675Z,0.62
2019-03-26T03:09:54.878Z,0.62
2019-03-26T03:12:27.845Z,0.60
2019-03-26T03:15:00.809Z,0.70
2019-03-26T03:17:33.765Z,0.70
2019-03-26T03:20:06.588Z,0.62
2019-03-26T03:22:39.791Z,0.80
2019-03-26T03:25:12.805Z,0.60
2019-03-26T03:27:45.846Z,0.60
2019-03-26T03:30:19.166Z,0.70
2019-03-26T03:32:52.337Z,0.70
2019-03-26T03:35:25.145Z,0.72
2019-03-26T03:37:58.093Z,0.80
2019-03-26T03:40:30.993Z,0.70
2019-03-26T03:43:03.813Z,0.75
2019-03-26T03:45:37.151Z,0.60
2019-03-26T03:48:10.053Z,0.60
2019-03-26T03:50:43.225Z,0.75
2019-03-26T03:53:16.190Z,0.50
2019-03-26T03:55:49.205Z,0.62
2019-03-26T03:58:22.273Z,0.50
2019-03-26T04:00:55.234Z,0.60
2019-03-26T04:03:28.149Z,0.70
2019-03-26T04:06:08.707Z,0.60
2019-03-26T04:08:36.569Z,0.50
2019-03-26T04:11:09.443Z,0.77
2019-03-26T04:13:42.606Z,0.45
2019-03-26T04:16:15.347Z,6.25
2019-03-26T04:18:48.267Z,1.87
2019-03-26T04:21:21.114Z,3.83
2019-03-26T04:23:54.304Z,1.57
2019-03-26T04:26:27.283Z,0.70
2019-03-26T04:29:00.286Z,5.42
2019-03-26T04:31:33.293Z,15.25
2019-03-26T04:34:06.208Z,24.27
2019-03-26T04:36:38.989Z,16.82
2019-03-26T04:39:11.986Z,17.20
2019-03-26T04:41:44.875Z,3.98
2019-03-26T04:44:17.753Z,6.62
2019-03-26T04:46:51.364Z,1.60
2019-03-26T04:49:24.344Z,5.90
2019-03-26T04:51:57.205Z,1.10
2019-03-26T04:54:30.046Z,0.90
2019-03-26T04:57:02.920Z,0.88
2019-03-26T04:59:36.146Z,0.70
2019-03-26T05:02:09.204Z,0.90
2019-03-26T05:04:42.172Z,0.80
2019-03-26T05:07:15.273Z,0.80
2019-03-26T05:09:48.125Z,0.60
2019-03-26T05:12:21.054Z,0.80
2019-03-26T05:14:53.853Z,0.78
2019-03-26T05:17:26.826Z,1.50
2019-03-26T05:19:59.772Z,0.90
2019-03-26T05:22:32.605Z,0.90
2019-03-26T05:25:05.344Z,0.88
2019-03-26T05:27:45.319Z,0.88
2019-03-26T05:30:12.944Z,0.80
2019-03-26T05:32:45.824Z,0.80
2019-03-26T05:35:19.044Z,0.80
2019-03-26T05:37:52.260Z,0.80
2019-03-26T05:40:25.684Z,0.68
2019-03-26T05:42:58.546Z,0.60
2019-03-26T05:45:31.365Z,0.60
2019-03-26T05:48:04.205Z,0.70
2019-03-26T05:50:37.896Z,0.80
2019-03-26T05:53:10.684Z,1.42
2019-03-26T05:55:43.735Z,1.10
2019-03-26T05:58:16.935Z,1.20
2019-03-26T06:00:49.852Z,1.02
2019-03-26T06:03:23.164Z,0.82
2019-03-26T06:05:59.044Z,1.00
2019-03-26T06:08:31.965Z,0.80
2019-03-26T06:11:04.744Z,1.02
2019-03-26T06:13:37.792Z,1.07
2019-03-26T06:16:12.131Z,0.72
2019-03-26T06:18:46.147Z,0.93
2019-03-26T06:21:19.045Z,0.90
2019-03-26T06:23:53.764Z,0.82
2019-03-26T06:26:26.717Z,0.88
2019-03-26T06:29:01.244Z,1.10
2019-03-26T06:31:34.967Z,0.90
2019-03-26T06:34:10.521Z,1.30
2019-03-26T06:36:43.164Z,1.20
2019-03-26T06:39:16.124Z,1.00
2019-03-26T06:41:49.112Z,0.80
2019-03-26T06:44:21.963Z,0.80
2019-03-26T06:46:54.744Z,0.80
2019-03-26T06:49:27.692Z,1.00
2019-03-26T06:52:00.915Z,1.25
2019-03-26T06:54:34.344Z,1.10
2019-03-26T06:57:07.683Z,0.80
2019-03-26T06:59:41.167Z,0.75
2019-03-26T07:02:14.044Z,0.90
2019-03-26T07:04:47.072Z,0.90
2019-03-26T07:07:31.082Z,1.10
2019-03-26T07:09:54.992Z,1.22
2019-03-26T07:12:28.005Z,1.30
2019-03-26T07:15:02.145Z,1.20
2019-03-26T07:17:35.324Z,1.27
2019-03-26T07:20:08.915Z,1.07
2019-03-26T07:22:42.344Z,1.15
2019-03-26T07:25:15.812Z,0.93
2019-03-26T07:27:48.672Z,1.17
2019-03-26T07:30:21.572Z,1.02
2019-03-26T07:32:55.004Z,1.00
2019-03-26T07:35:27.844Z,1.17
2019-03-26T07:38:00.908Z,1.20
2019-03-26T07:40:33.785Z,1.10
2019-03-26T07:43:06.567Z,1.30
2019-03-26T07:45:39.604Z,1.27
2019-03-26T07:48:12.444Z,1.20
2019-03-26T07:50:45.344Z,1.12
2019-03-26T07:53:18.273Z,1.20
2019-03-26T07:55:53.964Z,1.30
2019-03-26T07:58:26.951Z,1.17
2019-03-26T08:00:59.944Z,1.20
2019-03-26T08:03:34.165Z,1.22
2019-03-26T08:06:07.405Z,0.95
2019-03-26T08:08:40.843Z,1.15
2019-03-26T08:11:14.025Z,1.07
2019-03-26T08:13:46.906Z,1.00
2019-03-26T08:16:22.137Z,1.10
2019-03-26T08:18:55.007Z,1.25
2019-03-26T08:21:28.105Z,1.10
2019-03-26T08:24:01.005Z,1.25
2019-03-26T08:26:33.885Z,1.00
2019-03-26T08:29:06.845Z,1.05
2019-03-26T08:31:39.765Z,0.80
2019-03-26T08:34:13.105Z,1.00
2019-03-26T08:36:45.984Z,1.00
2019-03-26T08:39:18.733Z,1.00
2019-03-26T08:41:51.965Z,1.05
2019-03-26T08:44:26.534Z,1.00
2019-03-26T08:46:59.464Z,0.90
2019-03-26T08:49:32.250Z,0.90
2019-03-26T08:52:06.088Z,1.00
2019-03-26T08:54:39.013Z,0.80
2019-03-26T08:57:12.224Z,0.90
2019-03-26T08:59:45.112Z,1.05
2019-03-26T09:02:18.205Z,1.05
2019-03-26T09:04:51.053Z,0.80
2019-03-26T09:07:23.925Z,1.00
2019-03-26T09:09:56.907Z,0.90
2019-03-26T09:12:29.792Z,0.80
2019-03-26T09:15:02.554Z,1.00
2019-03-26T09:17:35.655Z,1.07
2019-03-26T09:20:11.045Z,1.00
2019-03-26T09:22:43.845Z,0.90
2019-03-26T09:25:17.304Z,1.02
2019-03-26T09:27:52.482Z,1.00
2019-03-26T09:30:25.265Z,1.00
2019-03-26T09:32:58.125Z,1.00
2019-03-26T09:35:31.045Z,0.90
2019-03-26T09:38:03.926Z,0.98
2019-03-26T09:40:36.768Z,1.00
2019-03-26T09:43:09.744Z,0.90
2019-03-26T09:45:42.885Z,0.90
2019-03-26T09:48:15.669Z,0.88
2019-03-26T09:50:49.247Z,0.80
2019-03-26T09:53:22.206Z,0.90
2019-03-26T09:55:55.148Z,1.00
2019-03-26T09:58:27.925Z,1.02
2019-03-26T10:01:01.145Z,0.90
2019-03-26T10:03:34.373Z,0.78
2019-03-26T10:06:07.334Z,1.00
2019-03-26T10:08:51.881Z,1.10
2019-03-26T10:11:15.166Z,1.15
2019-03-26T10:13:49.095Z,1.12
2019-03-26T10:16:22.326Z,1.07
2019-03-26T10:18:55.686Z,1.00
2019-03-26T10:21:29.015Z,1.15
2019-03-26T10:24:01.905Z,1.02
2019-03-26T10:26:35.374Z,0.90
2019-03-26T10:29:24.038Z,1.00
2019-03-26T10:31:42.887Z,1.05
2019-03-26T10:34:15.725Z,0.98
2019-03-26T10:36:48.666Z,1.00
2019-03-26T10:39:21.649Z,0.93
2019-03-26T10:41:55.166Z,1.10
2019-03-26T10:44:28.095Z,1.02
2019-03-26T10:47:00.985Z,1.10
2019-03-26T10:49:33.879Z,0.95
2019-03-26T10:52:07.048Z,1.07
2019-03-26T10:54:39.925Z,0.90
2019-03-26T10:57:12.753Z,1.00
2019-03-26T10:59:45.774Z,0.93
2019-03-26T11:02:19.148Z,1.00
2019-03-26T11:04:52.027Z,0.98
2019-03-26T11:07:24.945Z,1.20
2019-03-26T11:09:57.933Z,0.93
2019-03-26T11:12:30.965Z,0.80
2019-03-26T11:15:03.845Z,0.85
2019-03-26T11:17:36.789Z,0.90
2019-03-26T11:20:09.626Z,0.95
2019-03-26T11:22:42.477Z,0.70
2019-03-26T11:25:15.605Z,0.90
2019-03-26T11:27:48.571Z,0.95
2019-03-26T11:30:21.425Z,1.00
2019-03-26T11:32:54.365Z,0.90
2019-03-26T11:35:27.823Z,1.20
2019-03-26T11:38:00.725Z,1.07
2019-03-26T11:40:34.105Z,0.98
2019-03-26T11:43:07.590Z,1.40
2019-03-26T11:45:41.205Z,0.90
2019-03-26T11:48:14.125Z,1.10
2019-03-26T11:50:47.125Z,1.10
2019-03-26T11:53:20.114Z,1.15
2019-03-26T11:55:53.086Z,1.22
2019-03-26T11:58:30.886Z,1.00
2019-03-26T12:01:01.140Z,1.00
2019-03-26T12:03:34.045Z,1.00
2019-03-26T12:06:06.984Z,0.85
2019-03-26T12:08:39.846Z,1.15
2019-03-26T12:11:13.288Z,0.78
2019-03-26T12:13:46.245Z,3.77
2019-03-26T12:16:19.125Z,0.80
2019-03-26T12:18:54.111Z,1.92
2019-03-26T12:21:27.385Z,0.90
2019-03-26T12:24:00.245Z,1.00
2019-03-26T12:26:33.247Z,1.12
2019-03-26T12:29:06.207Z,1.10
2019-03-26T12:31:39.455Z,0.93
2019-03-26T12:34:12.426Z,1.00
2019-03-26T12:36:45.225Z,1.00
2019-03-26T12:39:18.085Z,0.90
2019-03-26T12:41:51.386Z,1.07
2019-03-26T12:44:24.285Z,1.02
2019-03-26T12:46:58.480Z,0.90
2019-03-26T12:49:31.813Z,0.90
2019-03-26T12:52:04.644Z,0.85
2019-03-26T12:54:37.505Z,0.90
2019-03-26T12:57:13.802Z,1.00
2019-03-26T12:59:45.293Z,0.80
2019-03-26T13:02:18.166Z,1.05
2019-03-26T13:04:51.185Z,7.95
2019-03-26T13:07:24.084Z,1.05
2019-03-26T13:09:56.916Z,1.20
2019-03-26T13:12:33.125Z,0.98
2019-03-26T13:15:05.926Z,1.07
2019-03-26T13:17:39.225Z,0.82
2019-03-26T13:20:12.125Z,0.85
2019-03-26T13:22:45.458Z,1.00
2019-03-26T13:25:18.445Z,1.00
2019-03-26T13:27:51.764Z,2.55
2019-03-26T13:30:25.105Z,1.00
2019-03-26T13:32:58.333Z,0.95
2019-03-26T13:35:31.165Z,1.00
2019-03-26T13:38:04.645Z,0.80
2019-03-26T13:40:37.674Z,0.88
2019-03-26T13:43:10.686Z,1.00
2019-03-26T13:45:44.045Z,0.90
2019-03-26T13:48:17.245Z,1.00
2019-03-26T13:50:50.226Z,1.10
2019-03-26T13:53:23.066Z,1.02
2019-03-26T13:55:56.406Z,1.05
2019-03-26T13:58:29.585Z,1.12
2019-03-26T14:01:02.454Z,1.00
2019-03-26T14:03:35.628Z,1.07
2019-03-26T14:06:08.967Z,0.88
2019-03-26T14:08:41.965Z,0.90
2019-03-26T14:11:15.304Z,1.00
2019-03-26T14:13:48.525Z,1.00
2019-03-26T14:16:21.485Z,0.90
2019-03-26T14:18:54.484Z,0.95
2019-03-26T14:21:27.464Z,1.00
2019-03-26T14:24:00.665Z,1.07
2019-03-26T14:26:34.165Z,1.00
2019-03-26T14:29:07.085Z,1.10
2019-03-26T14:31:39.984Z,0.90
2019-03-26T14:34:13.065Z,1.10
2019-03-26T14:36:46.004Z,1.10
2019-03-26T14:39:19.625Z,1.05
2019-03-26T14:41:52.525Z,1.07
2019-03-26T14:44:25.448Z,1.10
2019-03-26T14:46:59.124Z,1.20
2019-03-26T14:49:32.005Z,1.05
2019-03-26T14:52:04.905Z,1.20
2019-03-26T14:54:38.025Z,1.17
2019-03-26T14:57:10.953Z,1.10
2019-03-26T14:59:43.991Z,0.80
2019-03-26T15:02:17.547Z,1.20
2019-03-26T15:04:50.464Z,1.27
2019-03-26T15:07:23.469Z,1.07
2019-03-26T15:09:57.105Z,1.15
2019-03-26T15:12:30.688Z,1.10
2019-03-26T15:15:03.465Z,1.05
2019-03-26T15:17:36.405Z,1.30
2019-03-26T15:20:09.232Z,1.32
2019-03-26T15:22:41.945Z,1.37
2019-03-26T15:25:15.026Z,1.50
2019-03-26T15:27:48.445Z,1.30
2019-03-26T15:30:21.925Z,1.50
2019-03-26T15:32:54.964Z,1.30
2019-03-26T15:35:28.606Z,1.32
2019-03-26T15:38:01.424Z,2.02
2019-03-26T15:40:34.485Z,1.60
2019-03-26T15:43:07.553Z,1.80
2019-03-26T15:45:40.904Z,1.47
2019-03-26T15:48:13.909Z,1.80
2019-03-26T15:50:47.124Z,1.67
2019-03-26T15:53:20.005Z,2.62
2019-03-26T15:55:52.987Z,1.80
2019-03-26T15:58:28.425Z,3.05
2019-03-26T16:01:01.251Z,1.70
2019-03-26T16:03:34.325Z,1.62
2019-03-26T16:06:07.046Z,1.60
2019-03-26T16:08:40.125Z,1.67
2019-03-26T16:11:13.007Z,2.92
2019-03-26T16:13:45.947Z,2.45
2019-03-26T16:16:18.846Z,2.00
2019-03-26T16:18:51.766Z,1.77
2019-03-26T16:21:24.528Z,2.20
2019-03-26T16:23:57.232Z,1.92
2019-03-26T16:26:30.425Z,1.50
2019-03-26T16:29:03.465Z,1.80
2019-03-26T16:31:36.346Z,1.90
2019-03-26T16:34:09.286Z,1.85
2019-03-26T16:36:42.086Z,1.77
2019-03-26T16:39:14.845Z,1.50
2019-03-26T16:41:49.377Z,1.70
2019-03-26T16:44:22.425Z,1.70
2019-03-26T16:46:55.227Z,1.72
2019-03-26T16:49:27.953Z,1.60
2019-03-26T16:52:01.245Z,1.60
2019-03-26T16:54:34.864Z,1.80
2019-03-26T16:57:07.765Z,1.87
2019-03-26T16:59:40.594Z,1.82
2019-03-26T17:02:14.447Z,1.80
2019-03-26T17:04:47.289Z,1.70
2019-03-26T17:07:20.166Z,1.50
2019-03-26T17:09:52.953Z,1.77
2019-03-26T17:12:25.626Z,1.87
2019-03-26T17:14:59.405Z,1.60
2019-03-26T17:17:32.310Z,1.77
2019-03-26T17:20:05.055Z,1.67
2019-03-26T17:22:37.835Z,1.70
2019-03-26T17:25:10.729Z,1.60
2019-03-26T17:27:44.009Z,1.52
2019-03-26T17:30:16.747Z,1.52
2019-03-26T17:32:49.605Z,1.60
2019-03-26T17:35:22.277Z,1.47
2019-03-26T17:37:59.932Z,1.77
2019-03-26T17:40:29.633Z,1.87
2019-03-26T17:43:02.507Z,1.77
2019-03-26T17:45:35.620Z,1.90
2019-03-26T17:48:08.321Z,1.72
2019-03-26T17:50:41.588Z,2.12
2019-03-26T17:53:14.886Z,1.90
2019-03-26T17:55:47.707Z,2.15
2019-03-26T17:58:21.190Z,2.00
2019-03-26T18:00:54.094Z,1.90
2019-03-26T18:03:27.293Z,2.02
2019-03-26T18:06:00.159Z,2.20
2019-03-26T18:08:33.148Z,1.98
2019-03-26T18:11:06.005Z,2.10
2019-03-26T18:13:40.953Z,2.22
2019-03-26T18:16:14.045Z,1.85
2019-03-26T18:18:46.927Z,1.90
2019-03-26T18:21:20.251Z,2.00
2019-03-26T18:23:53.051Z,2.10
2019-03-26T18:26:25.834Z,2.10
2019-03-26T18:28:58.907Z,2.12
2019-03-26T18:31:31.789Z,2.40
2019-03-26T18:34:04.588Z,2.00
2019-03-26T18:36:37.486Z,2.10
2019-03-26T18:39:10.568Z,2.30
2019-03-26T18:41:43.347Z,2.15
2019-03-26T18:44:16.248Z,2.15
2019-03-26T18:46:49.035Z,2.10
2019-03-26T18:49:21.977Z,2.10
2019-03-26T18:51:54.890Z,2.08
2019-03-26T18:54:27.799Z,1.90
2019-03-26T18:57:00.567Z,1.82
2019-03-26T18:59:33.529Z,2.10
2019-03-26T19:02:07.187Z,2.27
2019-03-26T19:04:40.188Z,2.30
2019-03-26T19:07:13.237Z,2.40
2019-03-26T19:09:46.287Z,2.10
2019-03-26T19:12:19.170Z,1.95
2019-03-26T19:14:52.328Z,2.50
2019-03-26T19:17:25.408Z,2.55
2019-03-26T19:19:59.756Z,2.17
2019-03-26T19:22:32.836Z,2.27
2019-03-26T19:25:05.709Z,2.37
2019-03-26T19:27:38.550Z,2.25
2019-03-26T19:30:11.337Z,2.20
2019-03-26T19:32:44.247Z,2.30
2019-03-26T19:35:17.087Z,2.30
2019-03-26T19:37:50.068Z,2.20
2019-03-26T19:40:23.024Z,2.60
2019-03-26T19:42:55.904Z,2.20
2019-03-26T19:45:28.864Z,2.12
2019-03-26T19:48:01.630Z,2.25
2019-03-26T19:50:34.650Z,2.22
2019-03-26T19:53:07.709Z,2.40
2019-03-26T19:55:40.628Z,2.37
2019-03-26T19:58:14.072Z,2.00
2019-03-26T20:00:46.965Z,2.22
2019-03-26T20:03:19.910Z,2.40
2019-03-26T20:05:53.130Z,2.42
2019-03-26T20:08:25.827Z,2.22
2019-03-26T20:10:58.809Z,2.25
2019-03-26T20:13:31.766Z,2.30
2019-03-26T20:16:05.730Z,2.30
2019-03-26T20:18:39.790Z,2.10
2019-03-26T20:21:13.047Z,2.60
2019-03-26T20:23:46.267Z,2.40
2019-03-26T20:26:19.488Z,2.60
2019-03-26T20:28:52.375Z,2.20
2019-03-26T20:31:25.305Z,2.55
2019-03-26T20:33:58.168Z,2.40
2019-03-26T20:36:31.029Z,1.95
2019-03-26T20:39:04.286Z,2.45
2019-03-26T20:41:37.148Z,2.60
2019-03-26T20:44:10.448Z,2.20
2019-03-26T20:46:43.467Z,2.30
2019-03-26T20:49:16.245Z,2.00
2019-03-26T20:51:49.484Z,2.33
2019-03-26T20:54:22.324Z,2.40
2019-03-26T20:56:55.306Z,2.80
2019-03-26T20:59:28.088Z,2.45
2019-03-26T21:02:01.256Z,2.52
2019-03-26T21:04:34.094Z,2.27
2019-03-26T21:07:06.964Z,2.12
2019-03-26T21:09:39.864Z,2.40
2019-03-26T21:12:12.966Z,2.35
2019-03-26T21:14:45.764Z,2.87
2019-03-26T21:17:18.892Z,3.30
2019-03-26T21:19:51.725Z,2.37
2019-03-26T21:22:24.806Z,2.47
2019-03-26T21:24:57.767Z,2.27
2019-03-26T21:27:31.214Z,2.65
2019-03-26T21:30:10.819Z,2.52
2019-03-26T21:32:38.994Z,2.52
2019-03-26T21:35:11.933Z,2.30
2019-03-26T21:37:44.833Z,2.00
2019-03-26T21:40:17.764Z,1.98
2019-03-26T21:42:51.165Z,2.60
2019-03-26T21:45:24.445Z,2.70
2019-03-26T21:47:57.565Z,2.65
2019-03-26T21:50:30.666Z,2.60
2019-03-26T21:53:03.513Z,2.42
2019-03-26T21:55:36.465Z,2.58
2019-03-26T21:58:09.385Z,2.33
2019-03-26T22:00:44.291Z,2.58
2019-03-26T22:03:17.585Z,2.40
2019-03-26T22:05:50.385Z,2.30
2019-03-26T22:08:23.905Z,2.40
2019-03-26T22:10:57.380Z,2.40
2019-03-26T22:13:30.264Z,2.25
2019-03-26T22:16:03.133Z,2.50
2019-03-26T22:18:36.085Z,2.27
2019-03-26T22:21:09.532Z,2.37
2019-03-26T22:23:42.707Z,2.72
2019-03-26T22:26:15.828Z,2.55
2019-03-26T22:28:48.925Z,2.27
2019-03-26T22:31:21.744Z,2.30
2019-03-26T22:33:54.613Z,2.37
2019-03-26T22:36:27.525Z,2.58
2019-03-26T22:39:00.407Z,2.83
2019-03-26T22:41:33.762Z,2.85
2019-03-26T22:44:07.287Z,2.67
2019-03-26T22:46:40.065Z,2.42
2019-03-26T22:49:13.225Z,3.00
2019-03-26T22:51:46.004Z,2.30
2019-03-26T22:54:18.866Z,3.00
2019-03-26T22:56:52.125Z,2.52
2019-03-26T22:59:25.693Z,2.70
2019-03-26T23:01:58.647Z,2.75
2019-03-26T23:04:31.693Z,2.60
2019-03-26T23:07:04.673Z,2.35
2019-03-26T23:09:39.204Z,2.55
2019-03-26T23:12:12.152Z,2.85
2019-03-26T23:14:45.686Z,2.80
2019-03-26T23:17:19.005Z,2.50
2019-03-26T23:19:51.924Z,2.95
2019-03-26T23:22:24.805Z,3.10
2019-03-26T23:24:57.765Z,2.55
2019-03-26T23:27:31.164Z,2.72
2019-03-26T23:30:04.124Z,2.80
2019-03-26T23:32:37.221Z,3.08
2019-03-26T23:35:10.846Z,2.58
2019-03-26T23:37:43.625Z,2.90
2019-03-26T23:40:16.525Z,2.70
2019-03-26T23:42:49.533Z,2.83
2019-03-26T23:45:23.406Z,2.77
2019-03-26T23:47:56.484Z,2.70
2019-03-26T23:50:29.747Z,2.67
2019-03-26T23:53:02.539Z,2.90
2019-03-26T23:55:35.424Z,2.30
2019-03-26T23:58:08.429Z,2.60
